sensor_id;sensor_type;location;lat;lon;timestamp;temperature;humidity
44277;DHT22;29973;43.742;1.236;2022-10-16T00:00:37;16.80;99.90
44277;DHT22;29973;43.742;1.236;2022-10-16T00:03:04;16.80;99.90
44277;DHT22;29973;43.742;1.236;2022-10-16T00:05:30;16.80;99.90
44277;DHT22;29973;43.742;1.236;2022-10-16T00:07:56;16.80;99.90
44277;DHT22;29973;43.742;1.236;2022-10-16T00:10:22;16.90;99.90
44277;DHT22;29973;43.742;1.236;2022-10-16T00:12:48;17.00;99.90
44277;DHT22;29973;43.742;1.236;2022-10-16T00:15:15;17.00;99.90
44277;DHT22;29973;43.742;1.236;2022-10-16T00:17:40;17.10;99.90
44277;DHT22;29973;43.742;1.236;2022-10-16T00:20:07;16.90;99.90
44277;DHT22;29973;43.742;1.236;2022-10-16T00:22:33;16.90;99.90
44277;DHT22;29973;43.742;1.236;2022-10-16T00:24:59;16.90;99.90
44277;DHT22;29973;43.742;1.236;2022-10-16T00:27:24;17.00;99.90
44277;DHT22;29973;43.742;1.236;2022-10-16T00:29:51;17.10;99.90
44277;DHT22;29973;43.742;1.236;2022-10-16T00:32:17;17.00;99.90
44277;DHT22;29973;43.742;1.236;2022-10-16T00:34:43;16.90;99.90
44277;DHT22;29973;43.742;1.236;2022-10-16T00:37:09;16.90;99.90
44277;DHT22;29973;43.742;1.236;2022-10-16T00:39:35;16.80;99.90
44277;DHT22;29973;43.742;1.236;2022-10-16T00:42:00;16.90;99.90
44277;DHT22;29973;43.742;1.236;2022-10-16T00:49:50;17.10;99.90
44277;DHT22;29973;43.742;1.236;2022-10-16T00:52:16;17.10;99.90
44277;DHT22;29973;43.742;1.236;2022-10-16T00:54:42;17.10;99.90
44277;DHT22;29973;43.742;1.236;2022-10-16T00:57:08;17.10;99.90
44277;DHT22;29973;43.742;1.236;2022-10-16T00:59:38;17.10;99.90
44277;DHT22;29973;43.742;1.236;2022-10-16T01:02:06;17.10;99.90
44277;DHT22;29973;43.742;1.236;2022-10-16T01:04:35;17.20;99.90
44277;DHT22;29973;43.742;1.236;2022-10-16T01:18:46;17.30;99.90
44277;DHT22;29973;43.742;1.236;2022-10-16T01:21:20;17.30;99.90
44277;DHT22;29973;43.742;1.236;2022-10-16T01:31:27;17.30;99.90
44277;DHT22;29973;43.742;1.236;2022-10-16T01:34:19;17.30;99.90
44277;DHT22;29973;43.742;1.236;2022-10-16T01:36:53;17.30;99.90
44277;DHT22;29973;43.742;1.236;2022-10-16T01:39:24;17.30;99.90
44277;DHT22;29973;43.742;1.236;2022-10-16T01:42:19;17.30;99.90
44277;DHT22;29973;43.742;1.236;2022-10-16T01:44:43;17.30;99.90
44277;DHT22;29973;43.742;1.236;2022-10-16T01:47:13;17.30;99.90
44277;DHT22;29973;43.742;1.236;2022-10-16T01:49:41;17.20;99.90
44277;DHT22;29973;43.742;1.236;2022-10-16T01:52:13;17.20;99.90
44277;DHT22;29973;43.742;1.236;2022-10-16T01:54:42;17.20;99.90
44277;DHT22;29973;43.742;1.236;2022-10-16T01:57:10;17.10;99.90
44277;DHT22;29973;43.742;1.236;2022-10-16T01:59:44;17.10;99.90
44277;DHT22;29973;43.742;1.236;2022-10-16T02:02:11;17.00;99.90
44277;DHT22;29973;43.742;1.236;2022-10-16T02:04:40;16.90;99.90
44277;DHT22;29973;43.742;1.236;2022-10-16T02:07:11;16.90;99.90
44277;DHT22;29973;43.742;1.236;2022-10-16T02:09:38;16.80;99.90
44277;DHT22;29973;43.742;1.236;2022-10-16T02:12:21;16.90;99.90
44277;DHT22;29973;43.742;1.236;2022-10-16T02:14:47;16.70;99.90
44277;DHT22;29973;43.742;1.236;2022-10-16T02:17:16;16.70;99.90
44277;DHT22;29973;43.742;1.236;2022-10-16T02:19:43;16.80;99.90
44277;DHT22;29973;43.742;1.236;2022-10-16T02:22:38;16.80;99.90
44277;DHT22;29973;43.742;1.236;2022-10-16T02:25:09;16.90;99.90
44277;DHT22;29973;43.742;1.236;2022-10-16T02:32:58;16.60;99.90
44277;DHT22;29973;43.742;1.236;2022-10-16T02:35:26;16.60;99.90
44277;DHT22;29973;43.742;1.236;2022-10-16T02:37:53;16.70;99.90
44277;DHT22;29973;43.742;1.236;2022-10-16T02:40:20;16.70;99.90
44277;DHT22;29973;43.742;1.236;2022-10-16T02:42:50;16.90;99.90
44277;DHT22;29973;43.742;1.236;2022-10-16T02:45:17;16.70;99.90
44277;DHT22;29973;43.742;1.236;2022-10-16T02:47:43;16.60;99.90
44277;DHT22;29973;43.742;1.236;2022-10-16T02:50:09;16.50;99.90
44277;DHT22;29973;43.742;1.236;2022-10-16T02:52:34;16.60;99.90
44277;DHT22;29973;43.742;1.236;2022-10-16T02:55:00;16.60;99.90
44277;DHT22;29973;43.742;1.236;2022-10-16T02:57:26;16.60;99.90
44277;DHT22;29973;43.742;1.236;2022-10-16T02:59:52;16.60;99.90
44277;DHT22;29973;43.742;1.236;2022-10-16T03:02:17;16.70;99.90
44277;DHT22;29973;43.742;1.236;2022-10-16T03:04:43;16.60;99.90
44277;DHT22;29973;43.742;1.236;2022-10-16T03:07:09;16.60;99.90
44277;DHT22;29973;43.742;1.236;2022-10-16T03:09:35;16.50;99.90
44277;DHT22;29973;43.742;1.236;2022-10-16T03:12:00;16.50;99.90
44277;DHT22;29973;43.742;1.236;2022-10-16T03:14:26;16.50;99.90
44277;DHT22;29973;43.742;1.236;2022-10-16T03:16:52;16.30;99.90
44277;DHT22;29973;43.742;1.236;2022-10-16T03:19:18;16.30;99.90
44277;DHT22;29973;43.742;1.236;2022-10-16T03:21:44;16.20;99.90
44277;DHT22;29973;43.742;1.236;2022-10-16T03:24:10;16.30;99.90
44277;DHT22;29973;43.742;1.236;2022-10-16T03:26:36;16.20;99.90
44277;DHT22;29973;43.742;1.236;2022-10-16T03:29:02;16.40;99.90
44277;DHT22;29973;43.742;1.236;2022-10-16T03:31:29;16.40;99.90
44277;DHT22;29973;43.742;1.236;2022-10-16T03:33:55;16.50;99.90
44277;DHT22;29973;43.742;1.236;2022-10-16T03:36:20;16.50;99.90
44277;DHT22;29973;43.742;1.236;2022-10-16T03:38:46;16.50;99.90
44277;DHT22;29973;43.742;1.236;2022-10-16T03:41:12;16.50;99.90
44277;DHT22;29973;43.742;1.236;2022-10-16T03:43:38;16.50;99.90
44277;DHT22;29973;43.742;1.236;2022-10-16T03:46:03;16.60;99.90
44277;DHT22;29973;43.742;1.236;2022-10-16T03:48:30;16.80;99.90
44277;DHT22;29973;43.742;1.236;2022-10-16T03:50:55;16.80;99.90
44277;DHT22;29973;43.742;1.236;2022-10-16T03:53:21;16.80;99.90
44277;DHT22;29973;43.742;1.236;2022-10-16T03:55:47;16.90;99.90
44277;DHT22;29973;43.742;1.236;2022-10-16T03:58:13;17.10;99.90
44277;DHT22;29973;43.742;1.236;2022-10-16T04:00:43;17.00;99.90
44277;DHT22;29973;43.742;1.236;2022-10-16T04:03:10;17.20;99.90
44277;DHT22;29973;43.742;1.236;2022-10-16T04:05:35;17.30;99.90
44277;DHT22;29973;43.742;1.236;2022-10-16T04:08:02;17.40;99.90
44277;DHT22;29973;43.742;1.236;2022-10-16T04:10:28;17.40;99.90
44277;DHT22;29973;43.742;1.236;2022-10-16T04:12:53;17.40;99.90
44277;DHT22;29973;43.742;1.236;2022-10-16T04:15:24;17.40;99.90
44277;DHT22;29973;43.742;1.236;2022-10-16T04:17:51;17.40;99.90
44277;DHT22;29973;43.742;1.236;2022-10-16T04:20:17;17.50;99.90
44277;DHT22;29973;43.742;1.236;2022-10-16T04:22:43;17.50;99.90
44277;DHT22;29973;43.742;1.236;2022-10-16T04:25:09;17.50;99.90
44277;DHT22;29973;43.742;1.236;2022-10-16T04:27:36;17.60;99.90
44277;DHT22;29973;43.742;1.236;2022-10-16T04:30:03;17.60;99.90
44277;DHT22;29973;43.742;1.236;2022-10-16T04:32:29;17.70;99.90
44277;DHT22;29973;43.742;1.236;2022-10-16T04:34:54;17.60;99.90
44277;DHT22;29973;43.742;1.236;2022-10-16T04:37:26;17.60;99.90
44277;DHT22;29973;43.742;1.236;2022-10-16T04:39:53;17.70;99.90
44277;DHT22;29973;43.742;1.236;2022-10-16T04:42:19;17.70;99.90
44277;DHT22;29973;43.742;1.236;2022-10-16T04:44:45;17.60;99.90
44277;DHT22;29973;43.742;1.236;2022-10-16T04:47:11;17.60;99.90
44277;DHT22;29973;43.742;1.236;2022-10-16T04:49:37;17.70;99.90
44277;DHT22;29973;43.742;1.236;2022-10-16T04:52:03;17.60;99.90
44277;DHT22;29973;43.742;1.236;2022-10-16T04:54:28;17.70;99.90
44277;DHT22;29973;43.742;1.236;2022-10-16T04:56:54;17.70;99.90
44277;DHT22;29973;43.742;1.236;2022-10-16T04:59:21;17.70;99.90
44277;DHT22;29973;43.742;1.236;2022-10-16T05:01:47;17.70;99.90
44277;DHT22;29973;43.742;1.236;2022-10-16T05:04:14;17.70;99.90
44277;DHT22;29973;43.742;1.236;2022-10-16T05:06:41;17.70;99.90
44277;DHT22;29973;43.742;1.236;2022-10-16T05:09:07;17.80;99.90
44277;DHT22;29973;43.742;1.236;2022-10-16T05:11:33;17.80;99.90
44277;DHT22;29973;43.742;1.236;2022-10-16T05:14:00;17.80;99.90
44277;DHT22;29973;43.742;1.236;2022-10-16T05:16:26;17.80;99.90
44277;DHT22;29973;43.742;1.236;2022-10-16T05:18:52;17.90;99.90
44277;DHT22;29973;43.742;1.236;2022-10-16T05:21:18;17.80;99.90
44277;DHT22;29973;43.742;1.236;2022-10-16T05:23:44;17.80;99.90
44277;DHT22;29973;43.742;1.236;2022-10-16T05:26:10;17.90;99.90
44277;DHT22;29973;43.742;1.236;2022-10-16T05:28:35;17.80;99.90
44277;DHT22;29973;43.742;1.236;2022-10-16T05:31:08;17.90;99.90
44277;DHT22;29973;43.742;1.236;2022-10-16T05:33:35;17.90;99.90
44277;DHT22;29973;43.742;1.236;2022-10-16T05:36:02;17.90;99.90
44277;DHT22;29973;43.742;1.236;2022-10-16T05:38:28;17.90;99.90
44277;DHT22;29973;43.742;1.236;2022-10-16T05:40:54;18.00;99.90
44277;DHT22;29973;43.742;1.236;2022-10-16T05:43:20;18.00;99.90
44277;DHT22;29973;43.742;1.236;2022-10-16T05:46:03;17.90;99.90
44277;DHT22;29973;43.742;1.236;2022-10-16T05:48:30;18.00;99.90
44277;DHT22;29973;43.742;1.236;2022-10-16T05:51:02;17.90;99.90
44277;DHT22;29973;43.742;1.236;2022-10-16T05:53:30;17.80;99.90
44277;DHT22;29973;43.742;1.236;2022-10-16T05:55:56;18.00;99.90
44277;DHT22;29973;43.742;1.236;2022-10-16T05:58:22;17.90;99.90
44277;DHT22;29973;43.742;1.236;2022-10-16T06:00:56;17.90;99.90
44277;DHT22;29973;43.742;1.236;2022-10-16T06:03:22;18.00;99.90
44277;DHT22;29973;43.742;1.236;2022-10-16T06:05:48;18.00;99.90
44277;DHT22;29973;43.742;1.236;2022-10-16T06:08:14;18.10;99.90
44277;DHT22;29973;43.742;1.236;2022-10-16T06:10:40;18.10;99.90
44277;DHT22;29973;43.742;1.236;2022-10-16T06:13:06;18.20;99.90
44277;DHT22;29973;43.742;1.236;2022-10-16T06:15:31;18.10;99.90
44277;DHT22;29973;43.742;1.236;2022-10-16T06:17:57;18.20;99.90
44277;DHT22;29973;43.742;1.236;2022-10-16T06:20:22;18.10;99.90
44277;DHT22;29973;43.742;1.236;2022-10-16T06:22:48;18.10;99.90
44277;DHT22;29973;43.742;1.236;2022-10-16T06:25:14;18.10;99.90
44277;DHT22;29973;43.742;1.236;2022-10-16T06:27:40;18.10;99.90
44277;DHT22;29973;43.742;1.236;2022-10-16T06:30:06;18.20;99.90
44277;DHT22;29973;43.742;1.236;2022-10-16T06:32:32;18.20;99.90
44277;DHT22;29973;43.742;1.236;2022-10-16T06:34:58;18.20;99.90
44277;DHT22;29973;43.742;1.236;2022-10-16T06:37:24;18.20;99.90
44277;DHT22;29973;43.742;1.236;2022-10-16T06:39:50;18.10;99.90
44277;DHT22;29973;43.742;1.236;2022-10-16T06:42:18;18.20;99.90
44277;DHT22;29973;43.742;1.236;2022-10-16T06:44:44;18.20;99.90
44277;DHT22;29973;43.742;1.236;2022-10-16T06:47:10;18.20;99.90
44277;DHT22;29973;43.742;1.236;2022-10-16T06:49:36;18.30;99.90
44277;DHT22;29973;43.742;1.236;2022-10-16T06:52:02;18.30;99.90
44277;DHT22;29973;43.742;1.236;2022-10-16T06:54:28;18.30;99.90
44277;DHT22;29973;43.742;1.236;2022-10-16T06:56:54;18.30;99.90
44277;DHT22;29973;43.742;1.236;2022-10-16T06:59:21;18.40;99.90
44277;DHT22;29973;43.742;1.236;2022-10-16T07:01:46;18.40;99.90
44277;DHT22;29973;43.742;1.236;2022-10-16T07:04:12;18.40;99.90
44277;DHT22;29973;43.742;1.236;2022-10-16T07:06:38;18.40;99.90
44277;DHT22;29973;43.742;1.236;2022-10-16T07:09:05;18.30;99.90
44277;DHT22;29973;43.742;1.236;2022-10-16T07:11:32;18.30;99.90
44277;DHT22;29973;43.742;1.236;2022-10-16T07:13:58;18.40;99.90
44277;DHT22;29973;43.742;1.236;2022-10-16T07:16:29;18.50;99.90
44277;DHT22;29973;43.742;1.236;2022-10-16T07:18:56;18.60;99.90
44277;DHT22;29973;43.742;1.236;2022-10-16T07:21:26;18.60;99.90
44277;DHT22;29973;43.742;1.236;2022-10-16T07:23:55;18.70;99.90
44277;DHT22;29973;43.742;1.236;2022-10-16T07:26:22;18.80;99.90
44277;DHT22;29973;43.742;1.236;2022-10-16T07:28:48;18.80;99.90
44277;DHT22;29973;43.742;1.236;2022-10-16T07:31:34;18.90;99.90
44277;DHT22;29973;43.742;1.236;2022-10-16T07:34:00;18.90;99.90
44277;DHT22;29973;43.742;1.236;2022-10-16T07:36:26;18.90;99.90
44277;DHT22;29973;43.742;1.236;2022-10-16T07:38:52;18.90;99.90
44277;DHT22;29973;43.742;1.236;2022-10-16T07:41:19;18.90;99.90
44277;DHT22;29973;43.742;1.236;2022-10-16T07:43:49;18.90;99.90
44277;DHT22;29973;43.742;1.236;2022-10-16T07:46:16;18.90;99.90
44277;DHT22;29973;43.742;1.236;2022-10-16T07:48:42;18.90;99.90
44277;DHT22;29973;43.742;1.236;2022-10-16T07:51:11;18.90;99.90
44277;DHT22;29973;43.742;1.236;2022-10-16T07:53:37;18.90;99.90
44277;DHT22;29973;43.742;1.236;2022-10-16T07:56:05;18.90;99.90
44277;DHT22;29973;43.742;1.236;2022-10-16T07:58:33;18.90;99.90
44277;DHT22;29973;43.742;1.236;2022-10-16T08:00:59;19.00;99.90
44277;DHT22;29973;43.742;1.236;2022-10-16T08:03:28;19.00;99.90
44277;DHT22;29973;43.742;1.236;2022-10-16T08:05:56;19.10;99.90
44277;DHT22;29973;43.742;1.236;2022-10-16T08:08:22;19.30;99.90
44277;DHT22;29973;43.742;1.236;2022-10-16T08:10:48;19.60;99.90
44277;DHT22;29973;43.742;1.236;2022-10-16T08:13:14;20.00;99.90
44277;DHT22;29973;43.742;1.236;2022-10-16T08:15:41;20.20;99.90
44277;DHT22;29973;43.742;1.236;2022-10-16T08:18:06;20.40;99.90
44277;DHT22;29973;43.742;1.236;2022-10-16T08:20:33;20.50;99.90
44277;DHT22;29973;43.742;1.236;2022-10-16T08:22:59;20.70;99.90
44277;DHT22;29973;43.742;1.236;2022-10-16T08:25:26;20.80;99.90
44277;DHT22;29973;43.742;1.236;2022-10-16T08:27:51;20.80;99.90
44277;DHT22;29973;43.742;1.236;2022-10-16T08:30:19;21.10;99.90
44277;DHT22;29973;43.742;1.236;2022-10-16T08:32:45;21.00;99.90
44277;DHT22;29973;43.742;1.236;2022-10-16T08:35:12;21.10;99.90
44277;DHT22;29973;43.742;1.236;2022-10-16T08:37:38;21.10;99.90
44277;DHT22;29973;43.742;1.236;2022-10-16T08:40:06;21.20;99.90
44277;DHT22;29973;43.742;1.236;2022-10-16T08:48:02;21.60;99.90
44277;DHT22;29973;43.742;1.236;2022-10-16T08:50:31;21.90;99.90
44277;DHT22;29973;43.742;1.236;2022-10-16T08:52:59;21.80;99.90
44277;DHT22;29973;43.742;1.236;2022-10-16T08:55:51;21.90;99.90
44277;DHT22;29973;43.742;1.236;2022-10-16T08:58:20;22.30;99.90
44277;DHT22;29973;43.742;1.236;2022-10-16T09:00:52;22.10;99.90
44277;DHT22;29973;43.742;1.236;2022-10-16T09:03:47;21.90;99.90
44277;DHT22;29973;43.742;1.236;2022-10-16T09:14:28;22.50;99.90
44277;DHT22;29973;43.742;1.236;2022-10-16T09:17:01;22.30;99.90
44277;DHT22;29973;43.742;1.236;2022-10-16T09:19:37;22.60;99.90
44277;DHT22;29973;43.742;1.236;2022-10-16T09:22:16;22.80;99.90
44277;DHT22;29973;43.742;1.236;2022-10-16T09:24:42;22.80;99.90
44277;DHT22;29973;43.742;1.236;2022-10-16T09:27:12;22.50;99.90
44277;DHT22;29973;43.742;1.236;2022-10-16T09:29:39;22.70;99.90
44277;DHT22;29973;43.742;1.236;2022-10-16T09:32:12;22.90;99.90
44277;DHT22;29973;43.742;1.236;2022-10-16T09:34:43;23.40;99.90
44277;DHT22;29973;43.742;1.236;2022-10-16T09:37:14;23.60;99.90
44277;DHT22;29973;43.742;1.236;2022-10-16T09:39:50;24.20;99.90
44277;DHT22;29973;43.742;1.236;2022-10-16T09:42:37;25.10;99.90
44277;DHT22;29973;43.742;1.236;2022-10-16T09:45:03;25.40;99.90
44277;DHT22;29973;43.742;1.236;2022-10-16T09:47:30;26.10;99.90
44277;DHT22;29973;43.742;1.236;2022-10-16T09:49:59;26.20;99.90
44277;DHT22;29973;43.742;1.236;2022-10-16T09:52:28;26.20;99.90
44277;DHT22;29973;43.742;1.236;2022-10-16T09:54:59;25.60;99.90
44277;DHT22;29973;43.742;1.236;2022-10-16T09:57:26;25.90;99.90
44277;DHT22;29973;43.742;1.236;2022-10-16T09:59:54;27.00;99.90
44277;DHT22;29973;43.742;1.236;2022-10-16T10:02:30;26.40;99.90
44277;DHT22;29973;43.742;1.236;2022-10-16T10:04:56;26.30;99.90
44277;DHT22;29973;43.742;1.236;2022-10-16T10:07:34;26.80;99.90
44277;DHT22;29973;43.742;1.236;2022-10-16T10:10:04;26.50;99.90
44277;DHT22;29973;43.742;1.236;2022-10-16T10:12:32;26.70;99.90
44277;DHT22;29973;43.742;1.236;2022-10-16T10:15:04;26.40;99.90
44277;DHT22;29973;43.742;1.236;2022-10-16T10:17:31;26.30;99.90
44277;DHT22;29973;43.742;1.236;2022-10-16T10:20:15;27.10;99.90
44277;DHT22;29973;43.742;1.236;2022-10-16T10:22:43;28.40;99.90
44277;DHT22;29973;43.742;1.236;2022-10-16T10:27:59;27.40;99.90
44277;DHT22;29973;43.742;1.236;2022-10-16T10:46:43;30.40;99.90
44277;DHT22;29973;43.742;1.236;2022-10-16T10:58:10;29.10;99.90
44277;DHT22;29973;43.742;1.236;2022-10-16T11:09:20;29.10;99.90
44277;DHT22;29973;43.742;1.236;2022-10-16T11:14:43;29.30;99.90
44277;DHT22;29973;43.742;1.236;2022-10-16T11:17:30;29.40;99.90
44277;DHT22;29973;43.742;1.236;2022-10-16T11:25:11;30.10;99.90
44277;DHT22;29973;43.742;1.236;2022-10-16T11:27:45;30.00;99.90
44277;DHT22;29973;43.742;1.236;2022-10-16T11:30:18;29.30;99.90
44277;DHT22;29973;43.742;1.236;2022-10-16T11:33:17;29.80;99.90
44277;DHT22;29973;43.742;1.236;2022-10-16T11:39:09;29.90;99.90
44277;DHT22;29973;43.742;1.236;2022-10-16T11:47:19;30.50;99.90
44277;DHT22;29973;43.742;1.236;2022-10-16T11:49:47;29.80;99.90
44277;DHT22;29973;43.742;1.236;2022-10-16T11:55:21;27.50;99.90
44277;DHT22;29973;43.742;1.236;2022-10-16T11:57:52;30.50;99.90
44277;DHT22;29973;43.742;1.236;2022-10-16T12:00:34;31.20;98.90
44277;DHT22;29973;43.742;1.236;2022-10-16T12:06:11;29.00;99.90
44277;DHT22;29973;43.742;1.236;2022-10-16T12:08:39;30.10;99.70
44277;DHT22;29973;43.742;1.236;2022-10-16T12:11:24;30.00;99.70
44277;DHT22;29973;43.742;1.236;2022-10-16T12:16:58;32.30;96.90
44277;DHT22;29973;43.742;1.236;2022-10-16T12:19:30;31.20;96.30
44277;DHT22;29973;43.742;1.236;2022-10-16T12:22:01;30.90;97.60
44277;DHT22;29973;43.742;1.236;2022-10-16T12:24:35;31.00;96.70
44277;DHT22;29973;43.742;1.236;2022-10-16T12:27:01;31.50;96.40
44277;DHT22;29973;43.742;1.236;2022-10-16T12:32:03;30.70;95.40
44277;DHT22;29973;43.742;1.236;2022-10-16T12:37:11;30.40;95.50
44277;DHT22;29973;43.742;1.236;2022-10-16T12:39:38;29.80;96.10
44277;DHT22;29973;43.742;1.236;2022-10-16T12:42:22;28.60;98.40
44277;DHT22;29973;43.742;1.236;2022-10-16T12:44:48;28.20;99.50
44277;DHT22;29973;43.742;1.236;2022-10-16T12:47:50;28.90;98.80
44277;DHT22;29973;43.742;1.236;2022-10-16T12:52:56;29.00;98.30
44277;DHT22;29973;43.742;1.236;2022-10-16T12:55:23;28.50;98.10
44277;DHT22;29973;43.742;1.236;2022-10-16T13:00:25;30.70;95.10
44277;DHT22;29973;43.742;1.236;2022-10-16T13:14:10;31.10;94.40
44277;DHT22;29973;43.742;1.236;2022-10-16T13:20:02;29.00;95.80
44277;DHT22;29973;43.742;1.236;2022-10-16T13:28:00;29.70;95.30
44277;DHT22;29973;43.742;1.236;2022-10-16T13:35:49;30.70;93.60
44277;DHT22;29973;43.742;1.236;2022-10-16T13:38:24;30.80;93.00
44277;DHT22;29973;43.742;1.236;2022-10-16T13:40:55;31.00;92.90
44277;DHT22;29973;43.742;1.236;2022-10-16T13:43:28;29.30;94.10
44277;DHT22;29973;43.742;1.236;2022-10-16T13:45:58;29.90;94.60
44277;DHT22;29973;43.742;1.236;2022-10-16T13:48:25;30.60;94.10
44277;DHT22;29973;43.742;1.236;2022-10-16T13:51:11;31.20;91.50
44277;DHT22;29973;43.742;1.236;2022-10-16T13:53:37;29.60;93.80
44277;DHT22;29973;43.742;1.236;2022-10-16T13:56:13;30.60;93.50
44277;DHT22;29973;43.742;1.236;2022-10-16T13:58:40;30.20;93.60
44277;DHT22;29973;43.742;1.236;2022-10-16T14:01:19;31.10;93.00
44277;DHT22;29973;43.742;1.236;2022-10-16T14:03:46;31.20;92.80
44277;DHT22;29973;43.742;1.236;2022-10-16T14:06:15;31.80;90.80
44277;DHT22;29973;43.742;1.236;2022-10-16T14:08:48;31.00;91.30
44277;DHT22;29973;43.742;1.236;2022-10-16T14:11:21;31.10;91.10
44277;DHT22;29973;43.742;1.236;2022-10-16T14:13:50;31.00;91.40
44277;DHT22;29973;43.742;1.236;2022-10-16T14:16:25;31.40;92.00
44277;DHT22;29973;43.742;1.236;2022-10-16T14:18:58;31.00;91.70
44277;DHT22;29973;43.742;1.236;2022-10-16T14:21:24;30.60;91.80
44277;DHT22;29973;43.742;1.236;2022-10-16T14:23:52;30.10;93.40
44277;DHT22;29973;43.742;1.236;2022-10-16T14:26:21;30.30;93.80
44277;DHT22;29973;43.742;1.236;2022-10-16T14:28:48;30.90;92.40
44277;DHT22;29973;43.742;1.236;2022-10-16T14:31:24;30.10;94.00
44277;DHT22;29973;43.742;1.236;2022-10-16T14:33:50;30.50;92.40
44277;DHT22;29973;43.742;1.236;2022-10-16T14:36:17;29.70;94.00
44277;DHT22;29973;43.742;1.236;2022-10-16T14:39:14;29.50;94.60
44277;DHT22;29973;43.742;1.236;2022-10-16T14:41:46;29.60;93.80
44277;DHT22;29973;43.742;1.236;2022-10-16T14:44:12;28.50;95.10
44277;DHT22;29973;43.742;1.236;2022-10-16T14:46:41;28.10;95.90
44277;DHT22;29973;43.742;1.236;2022-10-16T14:51:41;26.50;98.90
44277;DHT22;29973;43.742;1.236;2022-10-16T14:54:12;25.70;99.90
44277;DHT22;29973;43.742;1.236;2022-10-16T14:59:55;26.50;99.90
44277;DHT22;29973;43.742;1.236;2022-10-16T15:02:32;27.20;99.90
44277;DHT22;29973;43.742;1.236;2022-10-16T15:07:44;27.50;99.40
44277;DHT22;29973;43.742;1.236;2022-10-16T15:10:15;26.40;99.90
44277;DHT22;29973;43.742;1.236;2022-10-16T15:12:41;25.90;99.90
44277;DHT22;29973;43.742;1.236;2022-10-16T15:15:37;25.70;99.90
44277;DHT22;29973;43.742;1.236;2022-10-16T15:18:04;25.30;99.90
44277;DHT22;29973;43.742;1.236;2022-10-16T15:20:35;24.90;99.90
44277;DHT22;29973;43.742;1.236;2022-10-16T15:23:04;25.40;99.90
44277;DHT22;29973;43.742;1.236;2022-10-16T15:28:08;27.10;99.90
44277;DHT22;29973;43.742;1.236;2022-10-16T15:30:35;27.50;99.90
44277;DHT22;29973;43.742;1.236;2022-10-16T15:33:02;27.50;99.90
44277;DHT22;29973;43.742;1.236;2022-10-16T15:35:28;29.40;99.80
44277;DHT22;29973;43.742;1.236;2022-10-16T15:37:54;30.50;98.30
44277;DHT22;29973;43.742;1.236;2022-10-16T15:40:20;31.40;96.30
44277;DHT22;29973;43.742;1.236;2022-10-16T15:42:46;30.50;97.10
44277;DHT22;29973;43.742;1.236;2022-10-16T15:45:13;29.10;98.90
44277;DHT22;29973;43.742;1.236;2022-10-16T15:47:40;28.50;98.70
44277;DHT22;29973;43.742;1.236;2022-10-16T15:50:08;28.50;98.60
44277;DHT22;29973;43.742;1.236;2022-10-16T15:52:34;28.60;98.40
44277;DHT22;29973;43.742;1.236;2022-10-16T15:55:00;29.00;98.60
44277;DHT22;29973;43.742;1.236;2022-10-16T15:57:28;28.60;99.10
44277;DHT22;29973;43.742;1.236;2022-10-16T15:59:54;28.80;98.50
44277;DHT22;29973;43.742;1.236;2022-10-16T16:02:20;29.20;97.90
44277;DHT22;29973;43.742;1.236;2022-10-16T16:04:46;28.20;99.10
44277;DHT22;29973;43.742;1.236;2022-10-16T16:07:11;27.60;99.70
44277;DHT22;29973;43.742;1.236;2022-10-16T16:09:37;25.80;99.90
44277;DHT22;29973;43.742;1.236;2022-10-16T16:12:03;25.00;99.90
44277;DHT22;29973;43.742;1.236;2022-10-16T16:14:29;24.40;99.90
44277;DHT22;29973;43.742;1.236;2022-10-16T16:16:55;24.20;99.90
44277;DHT22;29973;43.742;1.236;2022-10-16T16:19:21;24.00;99.90
44277;DHT22;29973;43.742;1.236;2022-10-16T16:21:48;23.90;99.90
44277;DHT22;29973;43.742;1.236;2022-10-16T16:24:14;23.80;99.90
44277;DHT22;29973;43.742;1.236;2022-10-16T16:26:40;23.60;99.90
44277;DHT22;29973;43.742;1.236;2022-10-16T16:29:12;23.60;99.90
44277;DHT22;29973;43.742;1.236;2022-10-16T16:31:39;23.50;99.90
44277;DHT22;29973;43.742;1.236;2022-10-16T16:34:05;23.40;99.90
44277;DHT22;29973;43.742;1.236;2022-10-16T16:36:31;23.30;99.90
44277;DHT22;29973;43.742;1.236;2022-10-16T16:38:57;23.20;99.90
44277;DHT22;29973;43.742;1.236;2022-10-16T16:41:25;23.00;99.90
44277;DHT22;29973;43.742;1.236;2022-10-16T16:43:52;22.90;99.90
44277;DHT22;29973;43.742;1.236;2022-10-16T16:46:18;22.80;99.90
44277;DHT22;29973;43.742;1.236;2022-10-16T16:48:45;22.70;99.90
44277;DHT22;29973;43.742;1.236;2022-10-16T16:51:16;22.60;99.90
44277;DHT22;29973;43.742;1.236;2022-10-16T16:53:44;22.50;99.90
44277;DHT22;29973;43.742;1.236;2022-10-16T16:56:10;22.40;99.90
44277;DHT22;29973;43.742;1.236;2022-10-16T16:58:36;22.40;99.90
44277;DHT22;29973;43.742;1.236;2022-10-16T17:01:03;22.40;99.90
44277;DHT22;29973;43.742;1.236;2022-10-16T17:03:30;22.30;99.90
44277;DHT22;29973;43.742;1.236;2022-10-16T17:06:07;22.30;99.90
44277;DHT22;29973;43.742;1.236;2022-10-16T17:08:34;22.20;99.90
44277;DHT22;29973;43.742;1.236;2022-10-16T17:11:01;22.20;99.90
44277;DHT22;29973;43.742;1.236;2022-10-16T17:13:29;22.10;99.90
44277;DHT22;29973;43.742;1.236;2022-10-16T17:15:55;22.10;99.90
44277;DHT22;29973;43.742;1.236;2022-10-16T17:18:23;22.00;99.90
44277;DHT22;29973;43.742;1.236;2022-10-16T17:20:49;22.10;99.90
44277;DHT22;29973;43.742;1.236;2022-10-16T17:23:17;22.00;99.90
44277;DHT22;29973;43.742;1.236;2022-10-16T17:25:43;22.00;99.90
44277;DHT22;29973;43.742;1.236;2022-10-16T17:28:10;21.90;99.90
44277;DHT22;29973;43.742;1.236;2022-10-16T17:30:38;21.70;99.90
44277;DHT22;29973;43.742;1.236;2022-10-16T17:33:05;21.70;99.90
44277;DHT22;29973;43.742;1.236;2022-10-16T17:35:42;21.80;99.90
44277;DHT22;29973;43.742;1.236;2022-10-16T17:38:08;21.80;99.90
44277;DHT22;29973;43.742;1.236;2022-10-16T17:40:34;21.70;99.90
44277;DHT22;29973;43.742;1.236;2022-10-16T17:43:01;21.60;99.90
44277;DHT22;29973;43.742;1.236;2022-10-16T17:45:27;21.60;99.90
44277;DHT22;29973;43.742;1.236;2022-10-16T17:47:53;21.60;99.90
44277;DHT22;29973;43.742;1.236;2022-10-16T17:50:19;21.60;99.90
44277;DHT22;29973;43.742;1.236;2022-10-16T17:52:45;21.30;99.90
44277;DHT22;29973;43.742;1.236;2022-10-16T17:55:11;21.30;99.90
44277;DHT22;29973;43.742;1.236;2022-10-16T17:57:37;21.40;99.90
44277;DHT22;29973;43.742;1.236;2022-10-16T18:00:04;21.20;99.90
44277;DHT22;29973;43.742;1.236;2022-10-16T18:02:30;21.30;99.90
44277;DHT22;29973;43.742;1.236;2022-10-16T18:04:56;21.20;99.90
44277;DHT22;29973;43.742;1.236;2022-10-16T18:07:24;21.10;99.90
44277;DHT22;29973;43.742;1.236;2022-10-16T18:09:49;21.10;99.90
44277;DHT22;29973;43.742;1.236;2022-10-16T18:12:15;21.00;99.90